Terminal Aerodrome Forecast
Issued by NWS Wilmington, OH

Current Version | Previous Version | Text Only | Print | Product List | Glossary Off
Versions: 1 2 3 4 5 6 7 8 9 10 11 12 13 14 15 16 17 18 19 20 21 22 23 24 25

000
FTUS41 KILN 220200 AAA
TAFILN
TAF AMD
KILN 220235Z 2203/2224 31012G20KT P6SM SCT050
     FM220600 31011KT P6SM BKN050
     FM221000 34009KT P6SM SCT040
     FM221600 34008KT P6SM SKC=

USA.gov is the U.S. government's official web portal to all federal, state and local government web resources and services.